Terminal Aerodrome Forecast
Issued by NWS Cleveland, OH

Home | Current Version | Previous Version | Text Only | Print | Product List | Glossary Off
Versions: 1 2 3 4 5 6 7 8 9 10 11 12 13 14 15 16 17

112
FTUS41 KCLE 242003 AAA
TAFERI
TAF AMD
KERI 242003Z 2420/2518 29012G20KT P6SM VCSH SCT025 BKN045
     FM242300 32012G20KT P6SM BKN030
     FM250400 36008KT P6SM BKN025=

USA.gov is the U.S. government's official web portal to all federal, state and local government web resources and services.